Time;durP1;ratioP1;P1;durP2;ratioP2;P2;SDS_P1;SDS_P2;PMS_P1;PMS_P2;Temp;Humidity;BMP_temperature;BMP_pressure;BME280_temperature;BME280_humidity;BME280_pressure;Samples;Min_cycle;Max_cycle;Signal;HPM_P1;HPM_P2
2022/01/08 00:02:53;;;;;;;2.85;0.80;;;;;;;4.48;100.00;99287.44;4952890;29;20398;-78
2022/01/08 00:05:57;;;;;;;1.75;0.45;;;;;;;4.47;100.00;99283.13;4952538;29;20054;-78
2022/01/08 00:09:00;;;;;;;1.38;0.77;;;;;;;4.32;100.00;99295.88;4951464;28;20058;-78
2022/01/08 00:12:04;;;;;;;0.95;0.95;;;;;;;4.27;100.00;99266.88;4938059;29;20054;-78
2022/01/08 00:15:08;;;;;;;0.20;0.20;;;;;;;4.29;100.00;99264.44;4940426;29;20062;-78
2022/01/08 00:18:12;;;;;;;3.30;1.67;;;;;;;4.28;100.00;99251.13;4952474;28;20508;-78
2022/01/08 00:21:15;;;;;;;1.55;1.13;;;;;;;4.22;100.00;99237.13;4952687;29;20062;-78
2022/01/08 00:24:19;;;;;;;1.52;1.35;;;;;;;4.20;100.00;99228.56;4939130;29;20054;-78
2022/01/08 00:27:23;;;;;;;0.52;0.52;;;;;;;4.21;100.00;99238.38;4940949;29;20054;-78
2022/01/08 00:30:30;;;;;;;2.40;0.88;;;;;;;4.21;100.00;99243.88;4952038;28;20047;-78
2022/01/08 00:33:33;;;;;;;1.15;0.80;;;;;;;4.22;100.00;99250.16;4952129;29;20429;-77
2022/01/08 00:36:36;;;;;;;1.55;1.33;;;;;;;4.23;100.00;99238.69;4952555;29;20046;-78
2022/01/08 00:39:40;;;;;;;0.30;0.30;;;;;;;4.22;100.00;99242.66;4956704;28;20054;-78
2022/01/08 00:42:43;;;;;;;2.17;0.98;;;;;;;4.24;100.00;99243.00;4955106;29;20424;-78
2022/01/08 00:45:47;;;;;;;3.72;1.25;;;;;;;4.24;100.00;99237.50;4943684;29;20062;-78
2022/01/08 00:48:50;;;;;;;4.05;1.08;;;;;;;4.28;100.00;99240.88;4954305;28;20058;-78
2022/01/08 00:51:53;;;;;;;7.78;1.17;;;;;;;4.26;100.00;99232.28;4943130;29;20054;-78
2022/01/08 00:54:57;;;;;;;3.80;1.38;;;;;;;4.18;100.00;99239.25;4955747;29;20428;-77
2022/01/08 00:58:00;;;;;;;0.65;0.65;;;;;;;4.16;100.00;99233.41;4955899;29;20058;-77
2022/01/08 01:01:03;;;;;;;1.02;0.80;;;;;;;4.17;100.00;99232.22;4954303;29;20410;-78
2022/01/08 01:04:06;;;;;;;1.10;0.68;;;;;;;4.22;100.00;99231.63;4955075;29;20127;-78
2022/01/08 01:07:10;;;;;;;0.68;0.68;;;;;;;4.32;100.00;99213.97;4955291;29;20054;-78
2022/01/08 01:10:15;;;;;;;3.80;1.10;;;;;;;4.28;100.00;99202.31;4954882;28;20508;-78
2022/01/08 01:13:19;;;;;;;0.82;0.82;;;;;;;4.67;100.00;99187.06;4955139;29;20053;-78
2022/01/08 01:16:22;;;;;;;0.90;0.55;;;;;;;4.77;100.00;99183.13;4954722;29;20159;-78
2022/01/08 01:19:26;;;;;;;8.98;0.98;;;;;;;4.74;100.00;99184.03;4954299;28;20058;-78
2022/01/08 01:22:40;;;;;;;1.13;1.02;;;;;;;4.74;100.00;99177.75;4940168;29;20050;-78
2022/01/08 01:25:51;;;;;;;0.43;0.30;;;;;;;4.75;100.00;99173.75;4942856;29;20066;-78
2022/01/08 01:29:01;;;;;;;2.90;0.65;;;;;;;4.75;100.00;99180.06;4954040;28;20062;-78
2022/01/08 01:49:10;;;;;;;;;;;;;;;4.99;100.00;99144.44;4954216;28;20054;-78
2022/01/08 01:52:16;;;;;;;0.10;0.10;;;;;;;5.05;100.00;99137.09;4954789;29;19922;-78
2022/01/08 01:55:20;;;;;;;1.30;0.75;;;;;;;5.03;100.00;99131.25;4942355;29;20062;-78
2022/01/08 01:58:23;;;;;;;2.45;0.80;;;;;;;5.06;100.00;99136.66;4953862;28;20059;-78
2022/01/08 02:01:27;;;;;;;0.20;0.20;;;;;;;5.10;100.00;99130.97;4954319;29;20127;-78
2022/01/08 02:04:30;;;;;;;0.40;0.40;;;;;;;5.11;100.00;99136.03;4953888;29;20054;-78
2022/01/08 02:07:34;;;;;;;0.63;0.63;;;;;;;5.11;100.00;99115.97;4941974;29;20062;-78
2022/01/08 02:10:37;;;;;;;0.05;0.05;;;;;;;5.11;100.00;99118.72;4953343;29;20698;-78
2022/01/08 02:13:40;;;;;;;0.10;0.10;;;;;;;5.15;100.00;99108.31;4942087;29;20054;-78
2022/01/08 02:16:44;;;;;;;1.25;0.47;;;;;;;5.18;100.00;99102.63;4953272;29;20098;-78
2022/01/08 02:19:52;;;;;;;0.75;0.55;;;;;;;5.21;100.00;99098.19;4953993;28;20409;-78
2022/01/08 02:22:55;;;;;;;0.20;0.20;;;;;;;5.22;100.00;99096.97;4953737;29;20051;-78
2022/01/08 02:26:06;;;;;;;1.67;0.30;;;;;;;5.24;100.00;99083.50;4953161;29;20421;-78
2022/01/08 02:29:15;;;;;;;1.77;0.52;;;;;;;5.23;100.00;99059.88;4942138;28;20046;-78
2022/01/08 02:32:26;;;;;;;0.30;0.30;;;;;;;5.22;100.00;99053.56;4953922;29;20050;-79
2022/01/08 02:35:29;;;;;;;0.40;0.32;;;;;;;5.23;100.00;99043.31;4941961;29;20058;-78
2022/01/08 02:38:34;;;;;;;0.10;0.10;;;;;;;5.21;100.00;99040.25;4951997;28;20406;-78
2022/01/08 02:41:39;;;;;;;0.20;0.20;;;;;;;5.21;100.00;99031.97;4948760;29;20050;-78
2022/01/08 02:44:43;;;;;;;0.38;0.20;;;;;;;5.11;100.00;99030.44;4953206;29;20054;-78
2022/01/08 02:47:48;;;;;;;0.15;0.15;;;;;;;5.01;100.00;99032.41;4953253;29;20058;-78
2022/01/08 02:50:51;;;;;;;0.20;0.20;;;;;;;5.05;100.00;99015.69;4953275;29;20057;-78
2022/01/08 02:53:55;;;;;;;5.05;0.98;;;;;;;5.08;100.00;99004.50;4952966;29;20054;-79
2022/01/08 02:56:58;;;;;;;2.83;0.30;;;;;;;5.03;100.00;99007.09;4953323;29;20054;-78
2022/01/08 03:00:05;;;;;;;0.30;0.30;;;;;;;5.12;100.00;98996.06;4953089;28;20059;-78
2022/01/08 03:03:08;;;;;;;0.95;0.50;;;;;;;5.26;100.00;98990.69;4953325;29;20406;-78
2022/01/08 03:06:11;;;;;;;0.20;0.20;;;;;;;5.35;100.00;98978.88;4952408;29;20544;-79
2022/01/08 03:09:15;;;;;;;0.15;0.15;;;;;;;5.44;100.00;98976.13;4952016;28;20065;-80
2022/01/08 03:12:18;;;;;;;0.20;0.20;;;;;;;5.49;100.00;98949.88;4951797;29;20071;-79
2022/01/08 03:15:23;;;;;;;0.20;0.20;;;;;;;5.47;100.00;98942.06;4952715;29;20062;-80
2022/01/08 03:18:26;;;;;;;0.50;0.40;;;;;;;5.54;100.00;98941.00;4953143;28;20066;-80
2022/01/08 03:21:35;;;;;;;0.20;0.20;;;;;;;5.58;100.00;98928.56;4941306;29;20054;-78
2022/01/08 03:24:39;;;;;;;0.10;0.10;;;;;;;5.68;100.00;98930.06;4952150;29;20067;-78
2022/01/08 03:27:44;;;;;;;0.47;0.45;;;;;;;5.70;100.00;98911.00;4941683;29;20050;-79
2022/01/08 03:30:48;;;;;;;0.47;0.47;;;;;;;5.71;100.00;98912.56;4952644;29;20058;-78
2022/01/08 03:33:53;;;;;;;0.17;0.17;;;;;;;5.65;100.00;98914.41;4941313;29;20513;-78
2022/01/08 03:36:56;;;;;;;0.40;0.40;;;;;;;5.66;100.00;98915.16;4952610;29;20070;-78
2022/01/08 03:40:00;;;;;;;5.35;0.43;;;;;;;5.64;100.00;98918.41;4955387;28;20057;-78
2022/01/08 03:43:03;;;;;;;0.10;0.10;;;;;;;5.61;100.00;98913.81;4954138;28;20062;-78
2022/01/08 03:46:07;;;;;;;0.32;0.25;;;;;;;5.57;100.00;98891.09;4952896;29;20463;-78
2022/01/08 03:49:22;;;;;;;0.85;0.55;;;;;;;5.58;100.00;98892.66;4952259;28;20139;-78
2022/01/08 03:52:27;;;;;;;0.30;0.30;;;;;;;5.61;100.00;98875.13;4952982;29;20054;-78
2022/01/08 03:55:30;;;;;;;0.10;0.10;;;;;;;5.60;100.00;98870.84;4953162;29;20054;-78
2022/01/08 03:58:33;;;;;;;0.40;0.40;;;;;;;5.64;100.00;98857.66;4941658;28;20055;-78
2022/01/08 04:01:37;;;;;;;0.13;0.13;;;;;;;5.67;100.00;98855.94;4939094;29;20050;-78
2022/01/08 04:04:41;;;;;;;5.50;1.17;;;;;;;5.69;100.00;98845.97;4952665;29;20123;-79
2022/01/08 04:07:44;;;;;;;0.35;0.30;;;;;;;5.72;100.00;98835.97;4939119;29;20501;-78
2022/01/08 04:10:47;;;;;;;0.30;0.30;;;;;;;5.82;100.00;98827.19;4952990;29;20490;-77
2022/01/08 04:13:51;;;;;;;1.80;0.40;;;;;;;5.84;100.00;98822.00;4954884;28;20672;-77
2022/01/08 04:16:55;;;;;;;3.60;1.33;;;;;;;5.86;100.00;98813.22;4956384;29;20505;-77
2022/01/08 04:19:59;;;;;;;0.50;0.45;;;;;;;5.90;100.00;98803.53;4956062;28;20062;-77
2022/01/08 04:23:02;;;;;;;0.52;0.43;;;;;;;5.94;100.00;98795.81;4956221;29;20054;-77
2022/01/08 04:26:05;;;;;;;3.95;1.40;;;;;;;5.96;100.00;98790.59;4956093;29;20058;-77
2022/01/08 04:29:10;;;;;;;0.50;0.43;;;;;;;5.97;100.00;98778.31;4944099;28;20054;-78
2022/01/08 04:32:13;;;;;;;0.17;0.17;;;;;;;6.04;100.00;98764.13;4955896;29;20054;-77
2022/01/08 04:35:17;;;;;;;0.38;0.38;;;;;;;6.02;100.00;98738.22;4943671;29;20062;-77
2022/01/08 04:38:20;;;;;;;3.50;0.47;;;;;;;6.09;100.00;98727.56;4943955;28;20058;-77
2022/01/08 04:41:24;;;;;;;0.20;0.20;;;;;;;6.16;100.00;98711.84;4969069;28;20066;-77
2022/01/08 04:44:27;;;;;;;0.30;0.15;;;;;;;6.23;100.00;98708.72;4943858;29;20504;-77
2022/01/08 04:47:31;;;;;;;1.05;0.30;;;;;;;6.18;100.00;98701.06;4955133;29;20054;-78
2022/01/08 04:50:34;;;;;;;0.10;0.10;;;;;;;6.17;100.00;98694.03;4955956;28;20054;-78
2022/01/08 04:53:38;;;;;;;0.52;0.43;;;;;;;6.19;100.00;98689.56;4955578;29;20618;-78
2022/01/08 04:56:41;;;;;;;0.10;0.10;;;;;;;6.21;100.00;98683.56;4954877;29;20055;-78
2022/01/08 04:59:45;;;;;;;0.28;0.28;;;;;;;6.31;100.00;98671.16;4954681;28;20472;-78
2022/01/08 05:02:49;;;;;;;0.10;0.10;;;;;;;6.32;100.00;98665.19;4955561;29;20497;-78
2022/01/08 05:05:53;;;;;;;0.80;0.60;;;;;;;6.34;100.00;98659.94;4955232;29;20062;-78
2022/01/08 05:08:56;;;;;;;0.20;0.20;;;;;;;6.37;100.00;98647.13;4954431;28;20058;-78
2022/01/08 05:12:00;;;;;;;0.57;0.47;;;;;;;6.45;100.00;98638.00;4941027;29;20106;-78
2022/01/08 05:15:04;;;;;;;0.35;0.35;;;;;;;6.52;100.00;98626.53;4955345;29;20058;-78
2022/01/08 05:18:09;;;;;;;0.10;0.10;;;;;;;6.56;100.00;98618.81;4955379;29;20050;-78
2022/01/08 05:24:17;;;;;;;5.93;0.60;;;;;;;6.59;100.00;98598.50;4955032;28;20417;-78
2022/01/08 05:27:20;;;;;;;0.50;0.15;;;;;;;6.63;100.00;98595.53;4955027;29;20062;-78
2022/01/08 05:30:25;;;;;;;0.20;0.20;;;;;;;6.69;100.00;98579.81;4942832;29;20054;-78
2022/01/08 05:33:28;;;;;;;0.55;0.55;;;;;;;6.69;100.00;98579.81;4954497;29;20054;-79
2022/01/08 05:36:31;;;;;;;1.95;0.63;;;;;;;6.71;100.00;98555.94;4943213;29;20050;-79
2022/01/08 05:39:35;;;;;;;0.75;0.57;;;;;;;6.85;100.00;98544.06;4954577;28;20070;-79
2022/01/08 05:42:39;;;;;;;1.17;0.55;;;;;;;6.83;100.00;98520.88;4943825;29;20614;-79
2022/01/08 05:45:42;;;;;;;0.30;0.30;;;;;;;6.85;100.00;98515.63;4954026;29;20053;-79
2022/01/08 05:48:46;;;;;;;0.63;0.45;;;;;;;6.81;100.00;98499.25;4953219;28;20055;-79
2022/01/08 05:51:49;;;;;;;3.30;1.20;;;;;;;6.81;100.00;98477.09;4954655;29;20050;-79
2022/01/08 05:54:52;;;;;;;0.70;0.70;;;;;;;6.79;100.00;98476.06;4953707;29;20410;-79
2022/01/08 05:57:56;;;;;;;9.95;1.10;;;;;;;6.72;100.00;98462.63;4954138;29;20055;-79
2022/01/08 06:00:59;;;;;;;0.30;0.25;;;;;;;6.72;100.00;98484.75;4954527;29;20062;-79
2022/01/08 06:04:03;;;;;;;4.43;1.67;;;;;;;6.74;100.00;98482.28;4953087;29;20054;-79
2022/01/08 06:07:07;;;;;;;4.85;1.10;;;;;;;6.79;100.00;98473.28;4954265;29;20474;-79
2022/01/08 06:10:10;;;;;;;0.22;0.22;;;;;;;6.88;100.00;98460.09;4952418;28;20054;-78
2022/01/08 06:13:14;;;;;;;0.95;0.90;;;;;;;7.03;100.00;98459.25;4952701;29;20054;-80
2022/01/08 06:16:17;;;;;;;0.20;0.20;;;;;;;7.12;100.00;98448.81;4954149;29;20062;-81
2022/01/08 06:19:20;;;;;;;1.90;0.90;;;;;;;7.29;100.00;98433.13;4954031;28;20058;-80
2022/01/08 06:22:24;;;;;;;1.67;0.38;;;;;;;7.31;100.00;98419.56;4927600;29;20054;-81
2022/01/08 06:25:29;;;;;;;2.28;0.10;;;;;;;7.31;100.00;98402.94;4953645;29;20058;-81
2022/01/08 06:28:33;;;;;;;3.10;0.70;;;;;;;7.27;100.00;98407.19;4941875;28;20054;-81
2022/01/08 06:31:36;;;;;;;0.30;0.30;;;;;;;7.29;100.00;98394.38;4953835;29;20094;-80
2022/01/08 06:34:41;;;;;;;0.77;0.65;;;;;;;7.29;100.00;98375.00;4953758;29;20064;-81
2022/01/08 06:37:44;;;;;;;0.10;0.10;;;;;;;7.38;100.00;98362.97;4953784;29;20054;-81
2022/01/08 06:40:48;;;;;;;1.27;1.05;;;;;;;7.37;100.00;98344.84;4956092;28;20066;-82
2022/01/08 06:43:51;;;;;;;0.22;0.22;;;;;;;7.34;100.00;98335.50;4953584;29;20055;-82
2022/01/08 06:46:55;;;;;;;0.90;0.43;;;;;;;7.39;100.00;98334.03;4953801;29;20062;-82
2022/01/08 06:49:58;;;;;;;1.30;0.90;;;;;;;7.45;100.00;98313.44;4953643;28;20054;-81
2022/01/08 06:53:02;;;;;;;1.40;0.40;;;;;;;7.50;100.00;98304.41;4942264;29;20058;-81
2022/01/08 06:56:05;;;;;;;0.45;0.45;;;;;;;7.55;100.00;98289.84;4941676;29;20062;-80
2022/01/08 06:59:09;;;;;;;1.55;0.63;;;;;;;7.58;100.00;98277.00;4942661;28;20247;-80
2022/01/08 07:02:12;;;;;;;0.75;0.65;;;;;;;7.66;100.00;98278.09;4953236;29;20082;-80
2022/01/08 07:05:16;;;;;;;2.88;1.17;;;;;;;7.73;100.00;98276.88;4952762;29;20510;-81
2022/01/08 07:08:19;;;;;;;2.80;0.88;;;;;;;7.76;100.00;98257.22;4937821;28;20054;-81
2022/01/08 07:11:22;;;;;;;1.33;0.77;;;;;;;7.82;100.00;98254.50;4949553;29;20489;-79
2022/01/08 07:14:26;;;;;;;1.95;0.47;;;;;;;7.84;100.00;98249.22;4951923;29;20051;-79
2022/01/08 07:17:29;;;;;;;2.83;1.95;;;;;;;7.84;100.00;98227.06;4950004;29;20058;-79
2022/01/08 07:20:32;;;;;;;2.20;0.68;;;;;;;7.94;100.00;98233.91;4951880;28;20062;-82
2022/01/08 07:23:36;;;;;;;2.33;0.50;;;;;;;8.03;100.00;98222.59;4951489;29;20046;-81
2022/01/08 07:26:39;;;;;;;9.63;1.05;;;;;;;8.09;100.00;98221.38;4951389;29;20058;-82
2022/01/08 07:29:42;;;;;;;0.50;0.25;;;;;;;8.07;100.00;98209.25;4949372;28;20069;-83
2022/01/08 07:32:51;;;;;;;0.47;0.28;;;;;;;8.11;100.00;98201.47;4950347;29;20050;-82
2022/01/08 07:35:55;;;;;;;2.00;0.57;;;;;;;8.18;100.00;98201.00;4950843;29;20057;-83
2022/01/08 07:38:58;;;;;;;3.97;0.52;;;;;;;8.31;100.00;98179.13;4949435;28;20062;-82
2022/01/08 07:42:02;;;;;;;5.03;1.95;;;;;;;8.34;100.00;98158.69;4953728;28;20058;-82
2022/01/08 07:45:08;;;;;;;0.75;0.68;;;;;;;8.38;100.00;98150.91;4938475;29;20051;-81
2022/01/08 07:48:11;;;;;;;1.90;0.77;;;;;;;8.35;100.00;98144.34;4954157;28;20050;-81
2022/01/08 07:51:15;;;;;;;3.70;1.20;;;;;;;8.45;100.00;98130.97;4943396;29;20054;-81
2022/01/08 07:54:18;;;;;;;1.55;0.65;;;;;;;8.49;100.00;98119.66;4950024;29;20054;-81
2022/01/08 07:57:22;;;;;;;4.57;1.42;;;;;;;8.51;100.00;98112.31;4952660;29;20054;-79
2022/01/08 08:00:26;;;;;;;1.48;0.38;;;;;;;8.47;100.00;98105.53;4932254;29;20063;-79
2022/01/08 08:03:29;;;;;;;1.25;0.65;;;;;;;8.51;100.00;98092.16;4949273;29;20055;-79
2022/01/08 08:06:36;;;;;;;2.50;1.13;;;;;;;8.54;100.00;98083.56;4947843;29;20529;-79
2022/01/08 08:09:40;;;;;;;1.10;0.63;;;;;;;8.57;100.00;98073.50;4945859;28;20059;-78
2022/01/08 08:12:44;;;;;;;9.48;1.73;;;;;;;8.66;100.00;98065.66;4954367;29;20058;-78
2022/01/08 08:15:48;;;;;;;12.80;1.33;;;;;;;8.65;100.00;98058.59;4955945;29;20062;-78
2022/01/08 08:18:52;;;;;;;4.38;1.17;;;;;;;8.65;100.00;98053.03;4955024;28;20058;-78
2022/01/08 08:21:55;;;;;;;1.45;0.60;;;;;;;8.67;100.00;98039.41;4955294;29;20054;-79
2022/01/08 08:24:59;;;;;;;3.45;1.08;;;;;;;8.74;100.00;98040.94;4955375;29;20066;-79
2022/01/08 08:28:06;;;;;;;2.95;0.95;;;;;;;8.85;100.00;98035.34;4955770;29;20062;-79
2022/01/08 08:31:11;;;;;;;3.35;0.68;;;;;;;8.83;100.00;98022.00;4940819;29;20054;-80
2022/01/08 08:34:14;;;;;;;3.30;1.50;;;;;;;8.91;100.00;98009.09;4955181;29;20074;-79
2022/01/08 08:37:18;;;;;;;2.60;0.73;;;;;;;8.91;100.00;98000.00;4943910;29;20062;-78
2022/01/08 08:40:22;;;;;;;1.45;0.43;;;;;;;8.91;100.00;97991.69;4961254;28;20049;-78
2022/01/08 08:43:25;;;;;;;0.73;0.70;;;;;;;8.89;100.00;97986.66;4930380;29;20050;-78
2022/01/08 08:46:29;;;;;;;0.85;0.40;;;;;;;8.89;100.00;97972.78;4955696;29;20058;-78
2022/01/08 08:49:33;;;;;;;0.65;0.38;;;;;;;8.95;100.00;97956.84;4933063;29;20046;-78
2022/01/08 08:52:36;;;;;;;0.30;0.15;;;;;;;8.91;100.00;97950.81;4955300;28;20496;-79
2022/01/08 08:55:40;;;;;;;0.63;0.30;;;;;;;8.94;100.00;97944.22;4942847;29;20054;-77
2022/01/08 08:58:43;;;;;;;1.85;1.45;;;;;;;9.01;100.00;97943.69;4954880;28;20469;-78
2022/01/08 09:01:46;;;;;;;0.52;0.52;;;;;;;9.07;100.00;97924.97;4943348;29;20070;-78
2022/01/08 09:04:51;;;;;;;1.00;0.52;;;;;;;9.11;100.00;97914.38;4955153;29;20058;-77
2022/01/08 09:07:54;;;;;;;0.63;0.50;;;;;;;9.18;100.00;97902.72;4955405;29;20054;-77
2022/01/08 09:10:57;;;;;;;0.10;0.10;;;;;;;9.31;100.00;97885.50;4954944;29;20508;-76
2022/01/08 09:14:01;;;;;;;0.20;0.20;;;;;;;9.43;100.00;97872.25;4955025;29;20054;-77
2022/01/08 09:17:05;;;;;;;0.90;0.47;;;;;;;9.58;100.00;97872.66;4955020;29;20078;-77
2022/01/08 09:20:09;;;;;;;1.35;0.40;;;;;;;9.59;100.00;97860.28;4955117;28;20059;-77
2022/01/08 09:23:13;;;;;;;0.65;0.40;;;;;;;9.70;100.00;97851.84;4953966;29;20050;-77
2022/01/08 09:26:17;;;;;;;0.30;0.20;;;;;;;9.75;100.00;97853.81;4954571;29;20141;-78
2022/01/08 09:29:20;;;;;;;5.47;0.30;;;;;;;10.35;100.00;97838.59;4954915;28;20062;-79
2022/01/08 09:32:25;;;;;;;0.20;0.10;;;;;;;10.71;100.00;97825.25;4955353;29;20055;-79
2022/01/08 09:35:29;;;;;;;0.20;0.20;;;;;;;10.83;100.00;97803.59;4953894;29;20050;-78
2022/01/08 09:38:32;;;;;;;0.68;0.68;;;;;;;10.77;100.00;97792.53;4953584;28;20062;-78
2022/01/08 09:41:35;;;;;;;0.30;0.20;;;;;;;10.52;100.00;97775.16;4964267;28;20501;-78
2022/01/08 09:44:43;;;;;;;0.80;0.30;;;;;;;10.21;100.00;97784.13;4942936;29;20058;-78
2022/01/08 09:47:46;;;;;;;1.25;0.98;;;;;;;10.16;100.00;97773.81;4939688;29;20058;-77
2022/01/08 09:50:50;;;;;;;0.63;0.43;;;;;;;10.12;100.00;97758.69;4953793;29;20054;-78
2022/01/08 09:53:56;;;;;;;0.70;0.32;;;;;;;10.07;100.00;97756.72;4953437;29;20054;-78
2022/01/08 09:57:01;;;;;;;0.15;0.10;;;;;;;10.18;100.00;97739.94;4942472;29;20516;-79
2022/01/08 10:00:13;;;;;;;0.40;0.20;;;;;;;10.19;100.00;97747.75;4954359;28;20501;-77
2022/01/08 10:03:21;;;;;;;0.43;0.20;;;;;;;10.34;100.00;97742.50;4942078;29;20054;-78
2022/01/08 10:06:27;;;;;;;0.85;0.50;;;;;;;10.38;100.00;97742.19;4943380;29;20058;-78
2022/01/08 10:09:34;;;;;;;2.35;1.40;;;;;;;10.47;100.00;97737.00;4953339;28;20054;-78
2022/01/08 10:12:54;;;;;;;9.15;1.35;;;;;;;10.60;100.00;97720.41;4954113;29;20065;-77
2022/01/08 10:19:24;;;;;;;20.60;1.38;;;;;;;10.74;100.00;97700.97;4954803;28;20506;-78
2022/01/08 10:22:27;;;;;;;3.58;0.95;;;;;;;10.86;100.00;97686.34;4954024;29;20050;-78
2022/01/08 10:25:31;;;;;;;1.67;1.33;;;;;;;10.92;100.00;97683.47;4953888;29;20066;-78
2022/01/08 10:28:44;;;;;;;3.97;2.60;;;;;;;10.92;100.00;97672.31;4953252;28;20529;-77
2022/01/08 10:31:54;;;;;;;10.55;2.72;;;;;;;10.89;100.00;97659.47;4953808;29;20062;-81
2022/01/08 10:34:57;;;;;;;3.80;1.15;;;;;;;10.89;100.00;97648.34;4953480;29;20054;-78
2022/01/08 10:38:00;;;;;;;0.38;0.38;;;;;;;10.90;100.00;97649.81;4953907;29;20066;-78
2022/01/08 10:41:12;;;;;;;2.65;1.55;;;;;;;10.91;100.00;97635.41;4964611;28;20050;-77
2022/01/08 10:44:23;;;;;;;0.68;0.47;;;;;;;10.95;100.00;97612.78;4939165;29;20401;-79
2022/01/08 10:47:27;;;;;;;4.53;0.70;;;;;;;11.55;100.00;97599.75;4953579;29;20529;-77
2022/01/08 10:50:30;;;;;;;1.55;0.93;;;;;;;11.66;100.00;97593.97;4952919;28;20046;-77
2022/01/08 10:53:54;;;;;;;1.75;1.05;;;;;;;11.84;100.00;97579.19;4953287;29;20050;-77
2022/01/08 10:57:00;;;;;;;3.17;1.25;;;;;;;11.95;100.00;97564.97;4944973;29;20062;-77
2022/01/08 11:00:06;;;;;;;4.70;1.27;;;;;;;11.45;100.00;97559.69;4953403;28;20054;-77
2022/01/08 11:03:09;;;;;;;5.60;1.38;;;;;;;11.33;100.00;97553.56;4934211;29;20078;-78
2022/01/08 11:06:13;;;;;;;2.72;0.20;;;;;;;11.44;100.00;97542.22;4926608;29;20045;-77
2022/01/08 11:09:16;;;;;;;3.17;0.82;;;;;;;11.54;100.00;97531.38;4952936;28;20078;-77
2022/01/08 11:12:32;;;;;;;0.28;0.28;;;;;;;11.49;100.00;97523.88;4938408;29;20043;-77
2022/01/08 11:15:48;;;;;;;1.67;0.30;;;;;;;11.44;100.00;97510.78;4953352;29;20055;-77
2022/01/08 11:18:53;;;;;;;4.38;0.80;;;;;;;11.39;100.00;97506.09;4952776;28;20058;-77
2022/01/08 11:21:57;;;;;;;0.80;0.45;;;;;;;11.50;100.00;97477.25;4952318;29;20070;-77
2022/01/08 11:25:07;;;;;;;2.20;1.55;;;;;;;11.65;100.00;97472.59;4952455;29;20054;-77
2022/01/08 11:28:17;;;;;;;0.55;0.55;;;;;;;11.82;100.00;97450.69;4952042;28;20058;-77
2022/01/08 11:31:22;;;;;;;0.35;0.32;;;;;;;11.84;100.00;97450.16;4945912;29;20058;-77
2022/01/08 11:34:28;;;;;;;1.65;0.40;;;;;;;11.98;100.00;97455.13;4940881;29;20195;-76
2022/01/08 11:37:32;;;;;;;0.65;0.40;;;;;;;12.03;100.00;97448.66;4952606;29;20062;-76
2022/01/08 11:40:39;;;;;;;3.42;0.20;;;;;;;11.97;100.00;97478.75;4954888;28;20594;-77
2022/01/08 11:43:43;;;;;;;0.32;0.32;;;;;;;11.91;100.00;97575.72;4952563;29;20058;-76
2022/01/08 11:46:48;;;;;;;2.50;0.47;;;;;;;11.57;100.00;97572.09;4952626;29;20069;-78
2022/01/08 11:49:52;;;;;;;0.40;0.13;;;;;;;11.19;100.00;97579.19;4952533;28;20062;-78
2022/01/08 11:53:24;;;;;;;1.75;0.30;;;;;;;10.95;100.00;97584.94;4929387;29;20055;-78
2022/01/08 11:56:33;;;;;;;0.30;0.30;;;;;;;10.84;100.00;97577.53;4951894;28;20054;-78
2022/01/08 11:59:36;;;;;;;1.63;1.05;;;;;;;10.74;100.00;97550.66;4951977;28;20058;-78
2022/01/08 12:02:42;;;;;;;0.65;0.65;;;;;;;10.73;100.00;97549.88;4937650;29;20050;-78
2022/01/08 12:05:45;;;;;;;6.70;1.13;;;;;;;10.70;100.00;97556.50;4952491;29;20070;-77
2022/01/08 12:09:19;;;;;;;0.28;0.28;;;;;;;10.62;100.00;97573.09;4952657;28;20069;-77
2022/01/08 12:12:45;;;;;;;0.85;0.52;;;;;;;10.55;100.00;97576.50;4924396;29;20059;-77
2022/01/08 12:15:50;;;;;;;0.20;0.10;;;;;;;10.48;100.00;97556.91;4952665;29;20058;-79
2022/01/08 12:18:54;;;;;;;2.15;0.20;;;;;;;10.39;100.00;97538.56;4940594;28;20054;-77
2022/01/08 12:21:58;;;;;;;3.40;1.25;;;;;;;10.37;100.00;97518.84;4952383;29;20086;-77
2022/01/08 12:25:03;;;;;;;2.03;0.82;;;;;;;10.46;100.00;97510.09;4958699;28;20097;-78
2022/01/08 12:28:06;;;;;;;0.93;0.82;;;;;;;10.46;100.00;97476.72;4951454;28;20512;-77
2022/01/08 12:31:32;;;;;;;1.65;0.35;;;;;;;10.56;100.00;97438.84;4950561;29;20175;-77
2022/01/08 12:34:44;;;;;;;1.00;0.32;;;;;;;10.53;100.00;97442.69;4954214;28;20062;-79
2022/01/08 12:37:57;;;;;;;0.73;0.47;;;;;;;10.59;100.00;97482.31;4955189;29;20066;-78
2022/01/08 12:41:00;;;;;;;0.70;0.55;;;;;;;10.72;100.00;97497.53;4967284;28;20054;-78
2022/01/08 12:44:26;;;;;;;4.10;0.47;;;;;;;10.72;100.00;97478.78;4955777;28;20054;-77
2022/01/08 12:47:36;;;;;;;0.10;0.00;;;;;;;10.62;100.00;97461.78;4944244;29;20406;-78
2022/01/08 12:50:43;;;;;;;3.10;0.63;;;;;;;10.59;100.00;97468.38;4955166;29;20062;-77
2022/01/08 12:54:04;;;;;;;0.60;0.35;;;;;;;10.49;100.00;97458.97;4954741;29;20055;-78
2022/01/08 12:57:07;;;;;;;0.52;0.52;;;;;;;10.54;100.00;97485.97;4954729;28;20062;-78
2022/01/08 13:00:11;;;;;;;7.40;0.93;;;;;;;10.55;100.00;97490.22;4955519;28;20050;-78
2022/01/08 13:03:14;;;;;;;0.80;0.38;;;;;;;10.50;100.00;97488.28;4954630;29;20059;-77
2022/01/08 13:06:18;;;;;;;3.58;0.73;;;;;;;10.51;100.00;97473.09;4956014;29;20058;-78
2022/01/08 13:09:22;;;;;;;3.13;0.60;;;;;;;10.46;100.00;97468.38;4954618;28;20058;-77
2022/01/08 13:12:25;;;;;;;1.00;0.57;;;;;;;10.43;100.00;97449.97;4955741;29;20058;-77
2022/01/08 13:15:30;;;;;;;0.10;0.10;;;;;;;10.43;100.00;97444.41;4955438;29;20054;-77
2022/01/08 13:18:34;;;;;;;2.97;0.20;;;;;;;10.48;100.00;97451.88;4955521;28;20425;-77
2022/01/08 13:21:41;;;;;;;1.95;0.95;;;;;;;10.49;100.00;97463.78;4943323;29;20058;-77
2022/01/08 13:24:46;;;;;;;11.07;0.90;;;;;;;10.46;100.00;97464.84;4955101;29;20055;-77
2022/01/08 13:27:50;;;;;;;15.05;1.67;;;;;;;10.45;100.00;97469.66;4954837;29;20050;-77
2022/01/08 13:30:53;;;;;;;1.05;0.73;;;;;;;10.39;100.00;97471.81;4954941;29;20054;-77
2022/01/08 13:33:57;;;;;;;2.75;0.20;;;;;;;10.34;100.00;97472.63;4955809;29;20132;-78
2022/01/08 13:37:05;;;;;;;3.35;0.93;;;;;;;10.15;100.00;97473.97;4954810;29;20066;-78
2022/01/08 13:40:09;;;;;;;3.47;0.45;;;;;;;10.06;100.00;97472.31;4955383;28;20410;-78
2022/01/08 13:43:12;;;;;;;0.98;0.20;;;;;;;10.22;100.00;97460.19;4958736;28;20054;-78
2022/01/08 13:46:15;;;;;;;1.30;0.90;;;;;;;10.33;100.00;97468.34;4941872;29;20417;-78
2022/01/08 13:49:19;;;;;;;0.10;0.10;;;;;;;10.36;100.00;97472.84;4954659;28;20051;-78
2022/01/08 13:52:39;;;;;;;12.70;1.17;;;;;;;10.33;100.00;97462.78;4942529;29;20046;-78
2022/01/08 13:55:45;;;;;;;2.25;1.08;;;;;;;10.23;100.00;97460.94;4942066;29;20058;-78
2022/01/08 13:58:49;;;;;;;2.40;0.98;;;;;;;10.06;100.00;97460.44;4954154;28;20070;-78
2022/01/08 14:01:55;;;;;;;25.30;2.03;;;;;;;9.88;100.00;97448.06;4953510;29;20059;-78
2022/01/08 14:04:58;;;;;;;2.30;1.02;;;;;;;9.86;100.00;97442.28;4942568;29;20516;-78
2022/01/08 14:08:07;;;;;;;10.40;1.42;;;;;;;9.82;100.00;97425.19;4954534;29;20058;-78
2022/01/08 14:11:20;;;;;;;2.28;1.00;;;;;;;9.83;100.00;97418.34;4935748;29;20054;-79
2022/01/08 14:14:23;;;;;;;0.60;0.40;;;;;;;9.82;100.00;97419.63;4941363;29;20050;-78
2022/01/08 14:17:29;;;;;;;11.80;0.98;;;;;;;9.74;100.00;97413.94;4942376;29;20062;-78
2022/01/08 14:20:32;;;;;;;2.25;0.50;;;;;;;9.89;100.00;97419.75;4954250;28;20050;-78
2022/01/08 14:23:36;;;;;;;2.25;0.25;;;;;;;9.83;100.00;97426.69;4954244;29;20058;-78
2022/01/08 14:26:39;;;;;;;0.77;0.57;;;;;;;9.77;100.00;97424.00;4939425;29;20062;-78
2022/01/08 14:29:48;;;;;;;0.30;0.13;;;;;;;9.74;100.00;97429.88;4949952;28;20062;-79
2022/01/08 14:33:03;;;;;;;15.52;0.98;;;;;;;9.76;100.00;97438.41;4942531;28;20504;-79
2022/01/08 14:36:06;;;;;;;9.73;0.63;;;;;;;9.75;100.00;97425.78;4936433;29;20067;-79
2022/01/08 14:39:14;;;;;;;6.65;1.05;;;;;;;9.80;100.00;97433.31;4945293;28;20137;-78
2022/01/08 14:42:19;;;;;;;10.68;0.90;;;;;;;9.71;100.00;97414.22;4938230;29;20046;-79
2022/01/08 14:45:23;;;;;;;4.13;0.38;;;;;;;9.65;100.00;97411.56;4953724;29;20066;-79
2022/01/08 14:48:28;;;;;;;1.95;0.60;;;;;;;9.74;100.00;97399.28;4939005;28;20050;-79
2022/01/08 14:51:32;;;;;;;8.05;0.75;;;;;;;9.74;100.00;97396.50;4953901;29;20054;-79
2022/01/08 14:54:35;;;;;;;5.65;1.23;;;;;;;9.68;100.00;97393.06;4953404;29;20413;-78